createdAt,value
2023-03-24T00:01:29.881Z,95494.03
2023-03-24T00:03:59.332Z,95491.91
2023-03-24T00:06:27.840Z,95492.13
2023-03-24T00:08:56.135Z,95460.63
2023-03-24T00:11:26.614Z,95487.06
2023-03-24T00:13:58.708Z,95478.25
2023-03-24T00:16:27.088Z,95483.06
2023-03-24T00:18:55.651Z,95477.19
2023-03-24T00:21:25.991Z,95478.19
2023-03-24T00:23:55.971Z,95475.56
2023-03-24T00:26:26.917Z,95493.75
2023-03-24T00:28:57.265Z,95471.91
2023-03-24T00:31:25.982Z,95483.59
2023-03-24T00:33:55.025Z,95476.72
2023-03-24T00:36:25.005Z,95477.59
2023-03-24T00:38:54.513Z,95471.53
2023-03-24T00:41:27.230Z,95476.03
2023-03-24T00:43:59.358Z,95470.75
2023-03-24T00:46:29.111Z,95476.59
2023-03-24T00:49:02.519Z,95484.28
2023-03-24T00:51:33.515Z,95458.56
2023-03-24T00:54:02.443Z,95468.88
2023-03-24T00:56:32.552Z,95407.97
2023-03-24T00:59:03.412Z,95425.97
2023-03-24T01:01:35.645Z,95461.97
2023-03-24T01:04:06.228Z,95463.59
2023-03-24T01:06:37.272Z,95464.13
2023-03-24T01:09:06.892Z,95441.63
2023-03-24T01:11:40.082Z,95459.13
2023-03-24T01:14:11.345Z,95454.59
2023-03-24T01:16:39.795Z,95448.25
2023-03-24T01:19:09.485Z,95456.75
2023-03-24T01:21:39.092Z,95452.47
2023-03-24T01:24:07.895Z,95440.25
2023-03-24T01:26:36.439Z,95437.63
2023-03-24T01:29:04.848Z,95428.63
2023-03-24T01:31:34.782Z,95428.09
2023-03-24T01:34:03.210Z,95424.88
2023-03-24T01:36:34.441Z,95344.66
2023-03-24T01:39:02.840Z,95420.41
2023-03-24T01:41:36.086Z,95417.00
2023-03-24T01:44:26.182Z,95414.03
2023-03-24T01:46:56.194Z,95422.78
2023-03-24T01:49:27.240Z,95411.91
2023-03-24T01:51:59.072Z,95401.00
2023-03-24T01:54:31.948Z,95415.53
2023-03-24T01:57:05.082Z,95395.66
2023-03-24T01:59:36.945Z,95429.81
2023-03-24T02:02:08.285Z,95372.50
2023-03-24T02:04:40.645Z,95415.91
2023-03-24T02:07:17.577Z,95424.06
2023-03-24T02:09:45.978Z,95426.88
2023-03-24T02:12:14.793Z,95429.28
2023-03-24T02:14:43.394Z,95430.91
2023-03-24T02:17:33.504Z,95429.84
2023-03-24T02:20:31.757Z,95432.53
2023-03-24T02:23:29.180Z,95441.16
2023-03-24T02:26:30.627Z,95436.69
2023-03-24T02:29:11.053Z,95440.75
2023-03-24T02:32:01.236Z,95437.16
2023-03-24T02:35:01.379Z,95433.13
2023-03-24T02:37:58.840Z,95436.09
2023-03-24T02:40:41.748Z,95440.63
2023-03-24T02:43:21.005Z,95440.63
2023-03-24T02:46:02.763Z,95432.94
2023-03-24T02:48:38.663Z,95432.41
2023-03-24T02:51:13.343Z,95425.53
2023-03-24T02:53:53.402Z,95435.88
2023-03-24T02:56:30.272Z,95434.25
2023-03-24T02:59:04.270Z,95432.91
2023-03-24T03:01:38.095Z,95440.06
2023-03-24T03:04:10.439Z,95440.28
2023-03-24T03:06:41.561Z,95437.41
2023-03-24T03:09:14.706Z,95287.84
2023-03-24T03:11:48.207Z,95447.78
2023-03-24T03:14:21.707Z,95450.56
2023-03-24T03:16:54.671Z,95457.41
2023-03-24T03:19:29.297Z,95461.06
2023-03-24T03:21:59.898Z,95408.91
2023-03-24T03:24:33.627Z,95460.91
2023-03-24T03:27:08.422Z,95464.34
2023-03-24T03:29:40.153Z,95456.97
2023-03-24T03:32:14.241Z,95427.78
2023-03-24T03:34:47.537Z,95468.41
2023-03-24T03:37:24.422Z,95470.28
2023-03-24T03:39:57.816Z,95469.91
2023-03-24T03:42:27.974Z,95473.69
2023-03-24T03:44:56.366Z,95469.47
2023-03-24T03:47:24.821Z,95492.03
2023-03-24T03:49:53.368Z,95490.69
2023-03-24T03:52:22.546Z,95505.28
2023-03-24T03:54:52.433Z,95490.72
2023-03-24T03:57:21.634Z,95417.84
2023-03-24T03:59:51.361Z,95474.22
2023-03-24T04:02:35.952Z,95462.84
2023-03-24T04:05:27.690Z,95456.22
2023-03-24T04:08:14.931Z,95456.00
2023-03-24T04:11:14.963Z,95454.72
2023-03-24T04:13:53.148Z,95429.41
2023-03-24T04:16:33.772Z,95436.75
2023-03-24T04:19:15.021Z,95454.66
2023-03-24T04:21:59.465Z,95451.16
2023-03-24T04:24:40.417Z,95447.09
2023-03-24T04:27:17.209Z,95454.81
2023-03-24T04:29:55.564Z,95457.41
2023-03-24T04:32:32.694Z,95428.78
2023-03-24T04:35:07.318Z,95420.50
2023-03-24T04:37:38.684Z,95466.88
2023-03-24T04:40:10.906Z,95466.69
2023-03-24T04:42:45.455Z,95480.94
2023-03-24T04:45:15.227Z,95483.53
2023-03-24T04:47:49.086Z,95476.97
2023-03-24T04:50:30.593Z,95484.56
2023-03-24T04:53:00.632Z,95485.06
2023-03-24T04:55:45.670Z,95465.38
2023-03-24T04:58:14.175Z,95483.00
2023-03-24T05:00:44.455Z,95472.94
2023-03-24T05:03:15.764Z,95484.03
2023-03-24T05:05:49.228Z,95486.00
2023-03-24T05:08:19.069Z,95462.38
2023-03-24T05:10:47.795Z,95488.44
2023-03-24T05:13:16.673Z,95499.56
2023-03-24T05:15:47.955Z,95502.44
2023-03-24T05:18:17.676Z,95502.59
2023-03-24T05:20:46.037Z,95494.75
2023-03-24T05:23:14.365Z,95498.88
2023-03-24T05:25:43.032Z,95502.84
2023-03-24T05:28:11.559Z,95492.75
2023-03-24T05:30:39.915Z,95488.19
2023-03-24T05:33:08.200Z,95502.47
2023-03-24T05:35:38.011Z,95477.19
2023-03-24T05:38:06.260Z,95499.84
2023-03-24T05:40:34.615Z,95492.03
2023-03-24T05:43:02.947Z,95513.41
2023-03-24T05:45:31.199Z,95478.56
2023-03-24T05:47:59.494Z,95506.13
2023-03-24T05:50:27.877Z,95509.94
2023-03-24T05:52:57.650Z,95506.22
2023-03-24T05:55:26.120Z,95499.94
2023-03-24T05:57:54.486Z,95516.91
2023-03-24T06:00:23.562Z,95505.47
2023-03-24T06:02:52.674Z,95510.28
2023-03-24T06:05:21.265Z,95518.16
2023-03-24T06:07:49.655Z,95512.75
2023-03-24T06:10:19.568Z,95498.59
2023-03-24T06:12:47.840Z,95502.06
2023-03-24T06:15:17.675Z,95515.44
2023-03-24T06:17:47.824Z,95505.19
2023-03-24T06:20:18.605Z,95510.28
2023-03-24T06:22:47.906Z,95502.03
2023-03-24T06:25:20.489Z,95457.25
2023-03-24T06:27:48.816Z,95505.22
2023-03-24T06:30:18.684Z,95497.66
2023-03-24T06:32:47.738Z,95455.91
2023-03-24T06:35:17.430Z,95498.44
2023-03-24T06:37:46.214Z,95509.75
2023-03-24T06:40:17.799Z,95509.75
2023-03-24T06:42:47.619Z,95513.28
2023-03-24T06:45:15.865Z,95511.34
2023-03-24T06:47:44.243Z,95514.91
2023-03-24T06:50:13.042Z,95510.34
2023-03-24T06:52:42.045Z,95513.81
2023-03-24T06:55:11.046Z,95503.81
2023-03-24T06:57:39.351Z,95501.22
2023-03-24T07:00:11.717Z,95505.59
2023-03-24T07:02:40.613Z,95505.97
2023-03-24T07:05:11.141Z,95502.03
2023-03-24T07:10:14.171Z,95519.06
2023-03-24T07:12:42.949Z,95353.19
2023-03-24T07:15:12.964Z,95500.31
2023-03-24T07:17:42.963Z,95406.84
2023-03-24T07:20:12.112Z,95494.88
2023-03-24T07:22:40.397Z,95470.25
2023-03-24T07:25:09.727Z,95488.88
2023-03-24T07:27:39.436Z,95485.06
2023-03-24T07:30:10.427Z,95482.19
2023-03-24T07:32:40.579Z,95474.28
2023-03-24T07:35:10.902Z,95481.56
2023-03-24T07:37:39.794Z,95482.22
2023-03-24T07:40:12.305Z,95470.41
2023-03-24T07:42:42.278Z,95483.22
2023-03-24T07:45:12.038Z,95478.13
2023-03-24T07:47:45.299Z,95469.91
2023-03-24T07:50:14.824Z,95439.66
2023-03-24T07:52:48.183Z,95467.75
2023-03-24T07:55:16.932Z,95463.91
2023-03-24T07:57:48.336Z,95469.59
2023-03-24T08:00:18.263Z,95466.81
2023-03-24T08:02:49.665Z,95461.41
2023-03-24T08:05:19.695Z,95459.41
2023-03-24T08:07:53.638Z,95409.63
2023-03-24T08:10:24.309Z,95459.56
2023-03-24T08:12:52.633Z,95447.81
2023-03-24T08:15:21.494Z,95448.78
2023-03-24T08:17:52.478Z,95446.66
2023-03-24T08:20:21.774Z,95438.28
2023-03-24T08:22:54.297Z,95432.38
2023-03-24T08:25:24.939Z,95427.50
2023-03-24T08:27:53.602Z,95430.75
2023-03-24T08:30:23.490Z,95420.84
2023-03-24T08:32:55.305Z,95419.03
2023-03-24T08:35:26.342Z,95416.41
2023-03-24T08:37:54.660Z,95414.69
2023-03-24T08:40:25.624Z,95414.81
2023-03-24T08:42:56.281Z,95407.88
2023-03-24T08:45:27.593Z,95387.13
2023-03-24T08:47:59.496Z,95376.03
2023-03-24T08:50:32.130Z,95368.53
2023-03-24T08:53:00.568Z,95375.34
2023-03-24T08:55:29.313Z,95337.81
2023-03-24T08:57:57.663Z,95377.63
2023-03-24T09:00:26.432Z,95377.09
2023-03-24T09:02:58.615Z,95373.88
2023-03-24T09:05:41.524Z,95368.91
2023-03-24T09:08:13.705Z,95361.41
2023-03-24T09:10:42.571Z,95363.22
2023-03-24T09:13:11.571Z,95355.50
2023-03-24T09:15:40.104Z,95350.91
2023-03-24T09:18:09.921Z,95358.88
2023-03-24T09:20:38.257Z,95344.91
2023-03-24T09:23:06.621Z,95343.25
2023-03-24T09:25:34.921Z,95342.13
2023-03-24T09:28:03.477Z,95347.28
2023-03-24T09:30:33.974Z,95335.25
2023-03-24T09:33:03.622Z,95324.75
2023-03-24T09:35:33.437Z,95317.31
2023-03-24T09:38:01.783Z,95322.16
2023-03-24T09:40:32.287Z,95314.91
2023-03-24T09:43:05.692Z,95324.44
2023-03-24T09:45:38.852Z,95315.53
2023-03-24T09:48:12.062Z,95311.06
2023-03-24T09:50:48.143Z,95302.72
2023-03-24T09:53:26.125Z,95292.69
2023-03-24T09:55:54.514Z,95281.84
2023-03-24T09:58:25.905Z,95295.56
2023-03-24T10:00:56.198Z,95240.16
2023-03-24T10:03:26.194Z,95287.78
2023-03-24T10:06:00.164Z,95282.47
2023-03-24T10:08:33.292Z,95284.97
2023-03-24T10:11:05.900Z,95284.81
2023-03-24T10:13:56.982Z,95276.44
2023-03-24T10:16:32.011Z,95281.50
2023-03-24T10:19:11.590Z,95269.66
2023-03-24T10:21:48.013Z,95262.47
2023-03-24T10:24:25.245Z,95265.06
2023-03-24T10:27:02.348Z,95270.28
2023-03-24T10:29:32.524Z,95264.28
2023-03-24T10:32:04.075Z,95265.22
2023-03-24T10:34:35.278Z,95251.31
2023-03-24T10:37:06.189Z,95252.88
2023-03-24T10:39:44.160Z,95227.88
2023-03-24T10:42:19.539Z,95254.81
2023-03-24T10:44:49.676Z,95240.34
2023-03-24T10:47:22.399Z,95230.94
2023-03-24T10:49:55.638Z,95227.13
2023-03-24T10:52:26.011Z,95226.38
2023-03-24T10:54:59.012Z,95228.31
2023-03-24T10:57:29.292Z,95213.91
2023-03-24T11:00:00.582Z,95213.84
2023-03-24T11:02:31.864Z,95204.91
2023-03-24T11:05:03.812Z,95199.09
2023-03-24T11:07:37.522Z,95196.25
2023-03-24T11:10:17.108Z,95184.47
2023-03-24T11:13:02.748Z,95196.72
2023-03-24T11:15:32.356Z,95189.94
2023-03-24T11:18:02.852Z,95127.72
2023-03-24T11:20:33.860Z,95089.34
2023-03-24T11:23:07.800Z,95162.84
2023-03-24T11:25:40.304Z,95158.94
2023-03-24T11:28:10.659Z,95135.53
2023-03-24T11:30:48.147Z,95114.88
2023-03-24T11:33:35.659Z,95054.75
2023-03-24T11:36:10.270Z,95143.75
2023-03-24T11:38:41.231Z,95134.78
2023-03-24T11:41:23.138Z,95100.59
2023-03-24T11:43:51.408Z,95118.84
2023-03-24T11:46:23.556Z,95117.81
2023-03-24T11:48:58.135Z,95109.66
2023-03-24T11:51:31.413Z,95107.84
2023-03-24T11:54:03.606Z,95040.63
2023-03-24T11:56:38.722Z,95085.22
2023-03-24T11:59:15.857Z,95093.22
2023-03-24T12:01:50.165Z,95083.25
2023-03-24T12:04:28.894Z,95073.88
2023-03-24T12:07:15.800Z,95069.41
2023-03-24T12:09:51.899Z,95068.63
2023-03-24T12:12:28.020Z,95044.78
2023-03-24T12:15:27.288Z,95061.47
2023-03-24T12:18:09.927Z,95054.34
2023-03-24T12:20:45.433Z,95059.94
2023-03-24T12:23:19.421Z,95045.53
2023-03-24T12:26:08.026Z,95027.06
2023-03-24T12:28:51.427Z,95033.06
2023-03-24T12:31:46.658Z,95016.53
2023-03-24T12:34:36.533Z,95013.75
2023-03-24T12:37:11.272Z,95019.06
2023-03-24T12:39:47.081Z,95012.47
2023-03-24T12:42:18.968Z,95016.81
2023-03-24T12:45:06.436Z,94937.81
2023-03-24T12:47:51.590Z,95012.44
2023-03-24T12:50:28.405Z,95006.41
2023-03-24T12:53:27.630Z,95002.16
2023-03-24T12:55:59.539Z,95011.41
2023-03-24T12:58:36.649Z,95001.59
2023-03-24T13:01:08.857Z,94988.66
2023-03-24T13:03:41.669Z,94989.81
2023-03-24T13:06:17.946Z,94978.03
2023-03-24T13:08:54.547Z,94977.00
2023-03-24T13:11:33.179Z,94998.09
2023-03-24T13:14:05.077Z,94974.75
2023-03-24T13:16:37.384Z,94978.16
2023-03-24T13:19:14.285Z,94976.97
2023-03-24T13:21:43.706Z,94973.28
2023-03-24T13:24:15.276Z,94977.22
2023-03-24T13:26:52.541Z,94972.13
2023-03-24T13:29:45.717Z,94971.09
2023-03-24T13:32:30.624Z,94969.56
2023-03-24T13:35:06.680Z,94974.25
2023-03-24T13:37:38.070Z,94966.03
2023-03-24T13:40:12.353Z,94969.88
2023-03-24T13:42:47.022Z,94943.13
2023-03-24T13:45:42.912Z,94825.16
2023-03-24T13:48:25.022Z,94955.44
2023-03-24T13:50:58.168Z,94951.28
2023-03-24T13:53:38.018Z,94953.63
2023-03-24T13:56:09.116Z,94942.66
2023-03-24T13:59:06.196Z,94953.41
2023-03-24T14:01:38.745Z,94949.66
2023-03-24T14:04:26.223Z,94948.03
2023-03-24T14:06:55.881Z,94902.25
2023-03-24T14:09:26.483Z,94959.47
2023-03-24T14:12:19.136Z,94956.56
2023-03-24T14:15:19.502Z,94953.31
2023-03-24T14:17:50.820Z,94945.84
2023-03-24T14:20:34.481Z,94949.31
2023-03-24T14:23:04.560Z,94939.22
2023-03-24T14:25:34.198Z,94936.50
2023-03-24T14:28:19.897Z,94935.31
2023-03-24T14:31:15.723Z,94888.88
2023-03-24T14:34:03.341Z,94921.53
2023-03-24T14:36:35.292Z,94832.03
2023-03-24T14:39:22.445Z,94952.38
2023-03-24T14:41:52.748Z,94947.78
2023-03-24T14:44:54.606Z,94923.47
2023-03-24T14:47:24.668Z,94944.53
2023-03-24T14:49:56.070Z,94937.75
2023-03-24T14:52:29.057Z,94947.63
2023-03-24T14:54:59.877Z,94940.31
2023-03-24T14:57:30.601Z,94924.50
2023-03-24T15:00:10.699Z,94941.97
2023-03-24T15:02:42.336Z,94944.38
2023-03-24T15:05:25.222Z,94945.00
2023-03-24T15:08:13.580Z,94947.16
2023-03-24T15:10:46.457Z,94944.75
2023-03-24T15:13:41.159Z,94942.97
2023-03-24T15:16:19.618Z,94929.53
2023-03-24T15:19:00.470Z,94935.13
2023-03-24T15:21:34.951Z,94945.91
2023-03-24T15:24:04.701Z,94944.16
2023-03-24T15:26:33.594Z,94948.88
2023-03-24T15:29:04.074Z,94943.19
2023-03-24T15:31:33.236Z,94945.47
2023-03-24T15:34:25.097Z,94951.31
2023-03-24T15:36:57.810Z,94959.09
2023-03-24T15:39:29.169Z,94957.84
2023-03-24T15:41:57.544Z,94956.84
2023-03-24T15:44:29.023Z,94963.25
2023-03-24T15:46:59.419Z,94972.69
2023-03-24T15:49:31.396Z,94971.00
2023-03-24T15:52:03.353Z,94955.78
2023-03-24T15:54:33.310Z,94985.00
2023-03-24T15:57:04.139Z,94995.53
2023-03-24T15:59:37.225Z,94987.25
2023-03-24T16:02:12.825Z,94981.91
2023-03-24T16:04:42.472Z,94992.31
2023-03-24T16:07:29.745Z,94992.16
2023-03-24T16:10:02.941Z,95001.19
2023-03-24T16:12:31.347Z,95007.22
2023-03-24T16:14:59.781Z,95006.91
2023-03-24T16:17:28.190Z,94975.28
2023-03-24T16:19:59.938Z,95011.00
2023-03-24T16:22:29.920Z,95004.09
2023-03-24T16:24:58.348Z,95010.50
2023-03-24T16:27:26.686Z,95014.53
2023-03-24T16:29:55.951Z,95017.75
2023-03-24T16:32:24.366Z,95013.84
2023-03-24T16:34:52.821Z,95034.59
2023-03-24T16:37:21.069Z,95039.72
2023-03-24T16:39:50.759Z,95042.84
2023-03-24T16:42:19.027Z,95031.53
2023-03-24T16:44:47.761Z,95026.09
2023-03-24T16:47:16.105Z,95050.31
2023-03-24T16:49:44.419Z,95056.16
2023-03-24T16:52:14.180Z,95006.31
2023-03-24T16:54:42.631Z,95068.97
2023-03-24T16:57:12.441Z,95070.59
2023-03-24T16:59:42.000Z,95057.81
2023-03-24T17:02:11.468Z,94997.75
2023-03-24T17:04:41.309Z,95076.41
2023-03-24T17:07:09.899Z,95080.50
2023-03-24T17:09:38.121Z,95083.59
2023-03-24T17:12:06.717Z,95088.47
2023-03-24T17:14:36.500Z,95092.50
2023-03-24T17:17:11.579Z,95086.69
2023-03-24T17:19:42.085Z,95102.44
2023-03-24T17:22:11.796Z,95068.88
2023-03-24T17:24:42.381Z,95109.09
2023-03-24T17:27:14.439Z,95108.63
2023-03-24T17:29:44.089Z,95109.25
2023-03-24T17:32:12.480Z,95107.84
2023-03-24T17:34:43.003Z,95115.53
2023-03-24T17:37:11.404Z,95081.53
2023-03-24T17:39:40.533Z,95105.94
2023-03-24T17:42:09.008Z,95072.53
2023-03-24T17:44:37.733Z,95123.00
2023-03-24T17:47:07.615Z,95131.81
2023-03-24T17:49:35.959Z,95110.66
2023-03-24T17:52:04.425Z,95122.50
2023-03-24T17:54:33.918Z,95138.41
2023-03-24T17:57:02.346Z,95137.75
2023-03-24T17:59:30.797Z,95138.34
2023-03-24T18:01:59.082Z,95136.44
2023-03-24T18:04:29.373Z,95138.50
2023-03-24T18:06:58.313Z,95148.41
2023-03-24T18:09:27.145Z,95150.47
2023-03-24T18:11:55.548Z,95155.25
2023-03-24T18:14:23.852Z,95157.63
2023-03-24T18:16:52.190Z,95160.38
2023-03-24T18:19:20.590Z,95163.53
2023-03-24T18:21:50.352Z,95165.22
2023-03-24T18:24:18.996Z,95095.63
2023-03-24T18:26:49.201Z,95171.22
2023-03-24T18:29:22.179Z,95170.75
2023-03-24T18:31:50.572Z,95171.75
2023-03-24T18:34:19.753Z,95175.56
2023-03-24T18:36:50.253Z,95177.25
2023-03-24T18:39:18.904Z,95177.19
2023-03-24T18:41:48.173Z,95180.28
2023-03-24T18:44:16.996Z,95175.34
2023-03-24T18:46:45.548Z,95187.31
2023-03-24T18:49:14.697Z,95191.09
2023-03-24T18:51:43.626Z,95192.13
2023-03-24T18:54:14.308Z,95193.25
2023-03-24T18:56:42.779Z,95193.31
2023-03-24T18:59:11.793Z,95145.97
2023-03-24T19:01:40.380Z,95184.75
2023-03-24T19:04:09.472Z,95193.72
2023-03-24T19:06:42.497Z,95197.31
2023-03-24T19:09:13.666Z,95172.91
2023-03-24T19:11:43.534Z,95196.94
2023-03-24T19:14:12.144Z,95201.16
2023-03-24T19:16:40.560Z,95197.75
2023-03-24T19:19:09.970Z,95189.88
2023-03-24T19:21:38.577Z,95194.72
2023-03-24T19:24:07.604Z,95197.06
2023-03-24T19:26:37.412Z,95195.34
2023-03-24T19:29:06.446Z,95192.47
2023-03-24T19:31:35.250Z,95189.03
2023-03-24T19:34:06.760Z,95201.69
2023-03-24T19:36:35.330Z,95199.22
2023-03-24T19:39:04.601Z,95197.28
2023-03-24T19:41:32.942Z,95198.78
2023-03-24T19:44:02.659Z,95199.47
2023-03-24T19:46:33.774Z,95200.88
2023-03-24T19:49:02.280Z,95209.97
2023-03-24T19:51:30.833Z,95208.19
2023-03-24T19:53:59.066Z,95207.66
2023-03-24T19:56:27.403Z,95209.84
2023-03-24T19:58:55.902Z,95207.88
2023-03-24T20:01:26.159Z,95217.09
2023-03-24T20:03:54.675Z,95216.81
2023-03-24T20:06:22.989Z,95215.00
2023-03-24T20:08:51.502Z,95121.38
2023-03-24T20:11:19.989Z,95217.88
2023-03-24T20:13:48.500Z,95218.63
2023-03-24T20:16:16.771Z,95223.19
2023-03-24T20:18:46.664Z,95212.84
2023-03-24T20:21:20.640Z,95221.97
2023-03-24T20:23:48.917Z,95216.00
2023-03-24T20:26:17.345Z,95202.13
2023-03-24T20:28:45.893Z,95215.88
2023-03-24T20:31:15.073Z,95214.06
2023-03-24T20:33:43.354Z,95209.91
2023-03-24T20:36:13.182Z,95199.56
2023-03-24T20:38:41.657Z,95211.22
2023-03-24T20:41:10.141Z,95218.50
2023-03-24T20:43:39.151Z,95223.34
2023-03-24T20:46:11.718Z,95144.47
2023-03-24T20:48:40.105Z,95217.41
2023-03-24T20:51:08.568Z,95214.47
2023-03-24T20:53:40.743Z,95216.31
2023-03-24T20:56:13.374Z,95217.78
2023-03-24T20:58:42.452Z,95215.28
2023-03-24T21:01:20.759Z,95209.22
2023-03-24T21:03:49.942Z,95221.38
2023-03-24T21:06:19.360Z,95206.97
2023-03-24T21:08:49.530Z,95210.84
2023-03-24T21:11:17.911Z,95158.09
2023-03-24T21:13:46.445Z,94988.47
2023-03-24T21:16:15.148Z,95210.84
2023-03-24T21:18:44.054Z,95208.28
2023-03-24T21:21:13.558Z,95192.13
2023-03-24T21:23:43.076Z,95214.25
2023-03-24T21:26:15.839Z,95214.19
2023-03-24T21:28:44.729Z,95217.13
2023-03-24T21:31:18.142Z,95112.31
2023-03-24T21:33:46.538Z,95204.88
2023-03-24T21:36:15.791Z,95213.13
2023-03-24T21:38:44.643Z,95146.13
2023-03-24T21:41:14.396Z,95211.41
2023-03-24T21:43:47.011Z,95212.47
2023-03-24T21:46:20.758Z,95232.97
2023-03-24T21:48:51.941Z,95218.47
2023-03-24T21:51:24.152Z,95106.56
2023-03-24T21:53:55.727Z,95204.22
2023-03-24T21:56:25.604Z,95202.63
2023-03-24T21:58:55.675Z,95202.13
2023-03-24T22:01:24.583Z,95200.50
2023-03-24T22:03:54.814Z,95190.00
2023-03-24T22:06:23.962Z,95198.06
2023-03-24T22:08:53.362Z,95210.66
2023-03-24T22:11:25.130Z,95204.31
2023-03-24T22:13:54.863Z,95198.78
2023-03-24T22:16:23.133Z,95207.16
2023-03-24T22:18:53.123Z,95191.50
2023-03-24T22:21:21.755Z,95194.25
2023-03-24T22:23:50.047Z,95198.59
2023-03-24T22:26:18.356Z,95194.03
2023-03-24T22:28:46.724Z,95197.97
2023-03-24T22:31:18.036Z,95196.59
2023-03-24T22:33:48.135Z,95179.16
2023-03-24T22:36:16.504Z,95197.78
2023-03-24T22:38:44.828Z,95195.69
2023-03-24T22:41:14.271Z,95201.09
2023-03-24T22:43:42.819Z,95210.53
2023-03-24T22:46:12.110Z,95194.19
2023-03-24T22:48:42.083Z,95201.09
2023-03-24T22:51:12.659Z,95195.28
2023-03-24T22:53:41.837Z,95202.81
2023-03-24T22:56:10.589Z,95204.66
2023-03-24T22:58:40.271Z,95200.47
2023-03-24T23:01:09.787Z,95145.69
2023-03-24T23:03:38.303Z,95198.84
2023-03-24T23:06:09.315Z,95195.69
2023-03-24T23:08:38.782Z,95199.50
2023-03-24T23:11:08.750Z,95138.72
2023-03-24T23:13:38.906Z,95134.19
2023-03-24T23:16:08.288Z,95193.56
2023-03-24T23:18:37.025Z,95188.72
2023-03-24T23:21:09.387Z,95196.41
2023-03-24T23:23:38.653Z,95169.50
2023-03-24T23:26:25.224Z,95190.22
2023-03-24T23:28:55.177Z,95197.72
2023-03-24T23:31:25.100Z,95189.69
2023-03-24T23:33:56.211Z,95167.66
2023-03-24T23:36:28.574Z,95190.31
2023-03-24T23:38:57.025Z,95185.03
2023-03-24T23:41:25.483Z,95190.63
2023-03-24T23:43:55.970Z,95180.31
2023-03-24T23:46:25.200Z,95179.53
2023-03-24T23:48:53.605Z,95186.78
2023-03-24T23:51:22.261Z,95156.03
2023-03-24T23:53:52.108Z,95180.72
2023-03-24T23:56:23.035Z,95179.44
2023-03-24T23:58:51.346Z,95171.31
